createdAt,value
2023-03-17T00:19:31.170Z,10.53
2023-03-17T00:49:34.224Z,10.60
2023-03-17T01:19:37.261Z,12.97
2023-03-17T01:49:40.889Z,16.00
2023-03-17T02:19:44.734Z,22.50
2023-03-17T02:49:47.640Z,19.83
2023-03-17T03:19:51.239Z,17.37
2023-03-17T03:49:54.300Z,15.83
2023-03-17T04:19:57.933Z,23.37
2023-03-17T04:50:01.528Z,12.20
2023-03-17T05:20:04.683Z,9.97
2023-03-17T05:50:07.865Z,11.17
2023-03-17T06:20:11.016Z,9.33
2023-03-17T06:50:14.290Z,7.03
2023-03-17T07:20:17.861Z,9.20
2023-03-17T07:50:21.226Z,9.17
2023-03-17T08:20:24.233Z,7.67
2023-03-17T08:50:27.693Z,6.57
2023-03-17T09:20:31.273Z,5.37
2023-03-17T09:50:34.964Z,4.93
2023-03-17T10:20:37.955Z,5.00
2023-03-17T10:50:41.416Z,6.27
2023-03-17T11:20:44.776Z,6.10
2023-03-17T11:50:47.643Z,6.20
2023-03-17T12:20:51.439Z,7.00
2023-03-17T12:50:54.378Z,8.27
2023-03-17T13:20:57.708Z,6.75
2023-03-17T13:51:00.757Z,6.67
2023-03-17T14:21:06.125Z,5.73
2023-03-17T14:51:11.674Z,4.70
2023-03-17T15:21:14.711Z,5.47
2023-03-17T15:51:18.175Z,6.30
2023-03-17T16:21:21.573Z,6.00
2023-03-17T16:51:25.105Z,7.30
2023-03-17T17:21:28.951Z,7.80
2023-03-17T17:51:31.812Z,8.10
2023-03-17T18:21:35.119Z,9.33
2023-03-17T18:51:38.121Z,10.00
2023-03-17T19:21:41.439Z,9.93
2023-03-17T19:51:45.167Z,13.63
2023-03-17T20:21:48.274Z,13.10
2023-03-17T20:51:51.513Z,10.87
2023-03-17T21:21:55.213Z,11.20
2023-03-17T21:51:59.038Z,11.30
2023-03-17T22:22:02.996Z,13.13
2023-03-17T22:52:06.278Z,12.93
2023-03-17T23:22:09.220Z,18.53
2023-03-17T23:52:12.941Z,17.35
